Aviation Digital Data Service (ADDS)

Output produced by METARs form (1911 UTC 25 June 2017)
found at http://www.aviationweather.gov/adds/metars/
 
LGPZ 251850Z 23005KT 9999 FEW020 24/22 Q1012
TAF LGPZ 251700Z 2518/2618 27012KT 9999 FEW025 
     BECMG 2522/2524 05006KT 
     BECMG 2608/2610 27012KT
       
LGAD 251850Z 00000KT 9999 FEW025 25/20 Q1012
TAF LGAD 251700Z 2518/2603 VRB05KT 9999 FEW025
       
LGRX 251850Z 00000KT CAVOK 25/23 Q1012 RMK FEW180 BLU
TAF LGRX 251700Z 2518/2603 27008KT 9999 FEW025 
     BECMG 2518/2520 VRB03KT
       
LGHI 251850Z 36008KT CAVOK 31/15 Q1009
TAF LGHI 251700Z 2518/2603 03010KT 9999 FEW025
       
LGRP 251850Z 26006KT CAVOK 29/16 Q1008 NOSIG
TAF LGRP 251700Z 2518/2618 26012KT 9999 FEW025
       
LGAL 251850Z 31004KT CAVOK 27/16 Q1012
TAF LGAL 251700Z 2518/2603 VRB05KT 9999 FEW025 
     BECMG 2518/2520 05010KT
       
LGEL 251850Z 33006KT CAVOK 28/15 Q1011
TAF LGEL 251700Z 2518/2618 VRB05KT 9999 SCT025 
     PROB30 
     TEMPO 2518/2520 5000 TSRA FEW018CB BKN025 
     BECMG 2607/2609 16010KT FEW020 SCT070
       
LGAV 251850Z 01004KT CAVOK 28/16 Q1012 NOSIG
TAF LGAV 251700Z 2518/2618 VRB05KT 9999 FEW020 
     BECMG 2606/2608 04015KT 
     TEMPO 2609/2616 FEW020 SCT060 
     BECMG 2616/2618 VRB03KT
       
LGIO 251850Z /////KT 9999 FEW070 21/19 Q1017
TAF LGIO 251700Z 2518/2603 VRB03KT 9999 FEW040 SCT060 
     PROB30 2600/2603 5000 BR SCT008
       
LGKR 251850Z 26003KT CAVOK 28/18 Q1012 NOSIG
TAF LGKR 251700Z 2518/2618 VRB03KT 9999 FEW020 
     PROB30 2600/2605 5000 BR SCT008 
     BECMG 2607/2609 16010KT 
     BECMG 2615/2617 33008KT
       
LGKL 251850Z 00000KT 9999 FEW030 SCT180 24/17 Q1012
TAF LGKL 251700Z 2518/2603 VRB03KT 9999 FEW030
       
LGKP 251850Z 30015KT CAVOK 24/23 Q1009
TAF LGKP 251700Z 2518/2603 30020KT 9999 FEW025
       
TAF LGTL 251700Z 2518/2603 01010KT CAVOK
       
LGKF 251850Z 00000KT 9999 FEW018 24/22 Q1012
TAF LGKF 251700Z 2518/2603 VRB05KT 9999 FEW018
       
TAF LGKC 251700Z 2518/2603 31008KT 9999 FEW018
       
LGKO 251850Z 32008KT CAVOK 26/16 Q1009
TAF LGKO 251700Z 2518/2618 33012KT 9999 FEW025
       
TAF LGLR 251700Z 2518/2603 09012KT 9999 FEW030 
     BECMG 2519/2521 VRB03KT
       
LGLM 251850Z 33005KT CAVOK 26/19 Q1012
TAF LGLM 251700Z 2518/2603 04015KT 9999 FEW025
       
LGTS 251850Z 12008KT 9999 FEW030 28/15 Q1012 NOSIG
TAF LGTS 251700Z 2518/2618 VRB03KT 9999 FEW025 
     BECMG 2612/2614 16010KT
       
LGKV 251850Z 05004KT CAVOK 26/21 Q1012
TAF LGKV 251700Z 2518/2603 08008KT 9999 FEW035
       
LGMK 251850Z 36009KT CAVOK 26/16 Q1012
TAF LGMK 251700Z 2518/2603 36015KT 9999 FEW018
       
LGMT 251850Z 31004KT CAVOK 28/16 Q1011
TAF LGMT 251700Z 2518/2603 35010KT 9999 FEW025
       
LGBL 251850Z VRB03KT 9999 FEW040 27/17 Q1011
TAF LGBL 251700Z 2518/2603 11012KT 9999 FEW030 
     BECMG 2518/2520 28006KT
       
LGIR 251850Z VRB02KT CAVOK 26/22 Q1011 NOSIG
TAF LGIR 251700Z 2518/2618 VRB05KT 9999 FEW025 
     BECMG 2605/2607 34010KT
       
LGSM 251850Z 35012KT CAVOK 31/16 Q1008
TAF LGSM 251700Z 2518/2603 33012KT 9999 FEW025
       
LGSR 251850Z 00000KT CAVOK 26/21 Q1011
TAF LGSR 251700Z 2518/2618 34015KT CAVOK
       
LGSK 251850Z 00000KT CAVOK 25/21 Q1012
TAF LGSK 251700Z 2518/2603 VRB03KT 9999 FEW020
       
TAF LGSY 251700Z 2518/2603 02010KT CAVOK
       
LGSA 251850Z 00000KT CAVOK 28/24 Q1012
TAF LGSA 251700Z 2518/2618 VRB05KT 9999 FEW025 
     BECMG 2610/2612 03010KT
       
LGSO 251450Z 01007KT CAVOK 30/16 Q1012
TAF LGTG 251700Z 2518/2603 08012KT 9999 FEW030 
     BECMG 2518/2520 30006KT
       
LGZA 251850Z 00000KT CAVOK 26/20 Q1012
TAF LGZA 251700Z 2518/2603 VRB05KT 9999 FEW020